sensor_id;sensor_type;location;lat;lon;timestamp;temperature;humidity
20885;DHT22;10602;48.000;9.654;2024-01-10T07:06:17;-5.10;1.00
20885;DHT22;10602;48.000;9.654;2024-01-10T07:08:50;-5.20;1.00
20885;DHT22;10602;48.000;9.654;2024-01-10T07:11:23;-5.20;1.00
20885;DHT22;10602;48.000;9.654;2024-01-10T07:14:03;-5.10;1.00
20885;DHT22;10602;48.000;9.654;2024-01-10T07:16:27;-5.20;1.00
20885;DHT22;10602;48.000;9.654;2024-01-10T07:19:11;-5.20;1.00
20885;DHT22;10602;48.000;9.654;2024-01-10T07:21:28;-5.30;1.00
20885;DHT22;10602;48.000;9.654;2024-01-10T07:23:56;-5.20;1.00
20885;DHT22;10602;48.000;9.654;2024-01-10T07:26:27;-5.00;1.00
20885;DHT22;10602;48.000;9.654;2024-01-10T07:28:56;-5.10;1.00
20885;DHT22;10602;48.000;9.654;2024-01-10T07:31:26;-5.00;1.00
20885;DHT22;10602;48.000;9.654;2024-01-10T07:33:56;-4.80;1.00
20885;DHT22;10602;48.000;9.654;2024-01-10T07:36:24;-4.80;1.00
20885;DHT22;10602;48.000;9.654;2024-01-10T07:38:59;-4.80;1.00
20885;DHT22;10602;48.000;9.654;2024-01-10T07:41:27;-4.70;1.00
20885;DHT22;10602;48.000;9.654;2024-01-10T07:43:56;-4.60;1.00
20885;DHT22;10602;48.000;9.654;2024-01-10T07:46:23;-4.50;1.00
20885;DHT22;10602;48.000;9.654;2024-01-10T07:48:55;-4.50;1.00
20885;DHT22;10602;48.000;9.654;2024-01-10T07:51:23;-4.40;1.00
20885;DHT22;10602;48.000;9.654;2024-01-10T07:53:56;-4.40;1.00
20885;DHT22;10602;48.000;9.654;2024-01-10T07:56:32;-4.40;1.00
20885;DHT22;10602;48.000;9.654;2024-01-10T07:58:59;-4.30;1.00
20885;DHT22;10602;48.000;9.654;2024-01-10T08:01:27;-4.30;1.00
20885;DHT22;10602;48.000;9.654;2024-01-10T08:03:54;-4.30;1.00
20885;DHT22;10602;48.000;9.654;2024-01-10T08:06:25;-4.20;1.00
20885;DHT22;10602;48.000;9.654;2024-01-10T08:08:52;-4.00;1.00
20885;DHT22;10602;48.000;9.654;2024-01-10T08:11:20;-4.00;1.00
20885;DHT22;10602;48.000;9.654;2024-01-10T08:13:48;-4.00;1.00
20885;DHT22;10602;48.000;9.654;2024-01-10T08:16:18;-4.00;1.00
20885;DHT22;10602;48.000;9.654;2024-01-10T08:18:53;-4.00;1.00
20885;DHT22;10602;48.000;9.654;2024-01-10T08:21:23;-3.80;1.00
20885;DHT22;10602;48.000;9.654;2024-01-10T08:24:01;-3.80;1.00
20885;DHT22;10602;48.000;9.654;2024-01-10T08:26:30;-3.70;1.00
20885;DHT22;10602;48.000;9.654;2024-01-10T08:28:59;-3.50;1.00
20885;DHT22;10602;48.000;9.654;2024-01-10T08:31:27;-3.40;1.00
20885;DHT22;10602;48.000;9.654;2024-01-10T08:33:55;-3.30;1.00
20885;DHT22;10602;48.000;9.654;2024-01-10T08:36:23;-3.20;1.00
20885;DHT22;10602;48.000;9.654;2024-01-10T08:38:53;-3.10;1.00
20885;DHT22;10602;48.000;9.654;2024-01-10T08:41:21;-3.00;1.00
20885;DHT22;10602;48.000;9.654;2024-01-10T08:43:49;-3.00;99.90
20885;DHT22;10602;48.000;9.654;2024-01-10T08:46:18;-2.80;99.90
20885;DHT22;10602;48.000;9.654;2024-01-10T08:48:47;-2.60;99.90
20885;DHT22;10602;48.000;9.654;2024-01-10T08:51:16;-2.50;99.90
20885;DHT22;10602;48.000;9.654;2024-01-10T08:53:44;-2.30;65.70
20885;DHT22;10602;48.000;9.654;2024-01-10T08:56:26;-2.30;1.00
20885;DHT22;10602;48.000;9.654;2024-01-10T08:58:56;-2.30;1.00
20885;DHT22;10602;48.000;9.654;2024-01-10T09:01:26;-2.40;99.90
20885;DHT22;10602;48.000;9.654;2024-01-10T09:04:00;-2.40;99.90
20885;DHT22;10602;48.000;9.654;2024-01-10T09:06:32;-2.50;99.90
20885;DHT22;10602;48.000;9.654;2024-01-10T09:09:06;-2.30;1.00
20885;DHT22;10602;48.000;9.654;2024-01-10T09:11:38;-2.40;1.00
20885;DHT22;10602;48.000;9.654;2024-01-10T09:14:13;-2.20;99.90
20885;DHT22;10602;48.000;9.654;2024-01-10T09:16:40;-2.30;99.90
20885;DHT22;10602;48.000;9.654;2024-01-10T09:19:10;-2.00;99.90
20885;DHT22;10602;48.000;9.654;2024-01-10T09:21:45;-2.00;1.00
20885;DHT22;10602;48.000;9.654;2024-01-10T09:24:19;-1.90;1.00
20885;DHT22;10602;48.000;9.654;2024-01-10T09:26:48;-2.10;99.90
20885;DHT22;10602;48.000;9.654;2024-01-10T09:29:28;-2.00;1.00
20885;DHT22;10602;48.000;9.654;2024-01-10T09:31:58;-1.90;1.00
20885;DHT22;10602;48.000;9.654;2024-01-10T09:34:27;-1.80;1.00
20885;DHT22;10602;48.000;9.654;2024-01-10T09:37:11;-1.90;1.00
20885;DHT22;10602;48.000;9.654;2024-01-10T10:18:21;-0.70;1.00
20885;DHT22;10602;48.000;9.654;2024-01-10T10:20:49;-0.30;99.90
20885;DHT22;10602;48.000;9.654;2024-01-10T10:23:21;-0.10;1.00
20885;DHT22;10602;48.000;9.654;2024-01-10T10:25:48;0.30;99.90
20885;DHT22;10602;48.000;9.654;2024-01-10T10:33:33;1.90;1.00
20885;DHT22;10602;48.000;9.654;2024-01-10T10:36:30;2.70;81.90
20885;DHT22;10602;48.000;9.654;2024-01-10T10:38:59;2.90;1.00
20885;DHT22;10602;48.000;9.654;2024-01-10T10:41:37;2.90;99.90
20885;DHT22;10602;48.000;9.654;2024-01-10T10:44:24;2.90;99.90
20885;DHT22;10602;48.000;9.654;2024-01-10T10:46:52;3.50;99.90
20885;DHT22;10602;48.000;9.654;2024-01-10T10:49:34;3.40;1.00
20885;DHT22;10602;48.000;9.654;2024-01-10T10:52:03;3.40;1.00
20885;DHT22;10602;48.000;9.654;2024-01-10T10:54:32;3.60;1.00
20885;DHT22;10602;48.000;9.654;2024-01-10T10:57:02;3.60;1.00
20885;DHT22;10602;48.000;9.654;2024-01-10T10:59:31;4.00;1.00
20885;DHT22;10602;48.000;9.654;2024-01-10T11:02:01;4.20;1.00
20885;DHT22;10602;48.000;9.654;2024-01-10T11:04:29;4.30;1.00
20885;DHT22;10602;48.000;9.654;2024-01-10T11:06:57;4.40;1.00
20885;DHT22;10602;48.000;9.654;2024-01-10T11:09:25;4.30;1.00
20885;DHT22;10602;48.000;9.654;2024-01-10T11:12:18;4.00;1.00
20885;DHT22;10602;48.000;9.654;2024-01-10T11:17:40;2.90;48.90
20885;DHT22;10602;48.000;9.654;2024-01-10T11:21:12;2.60;99.90
20885;DHT22;10602;48.000;9.654;2024-01-10T11:25:45;2.20;99.90
20885;DHT22;10602;48.000;9.654;2024-01-10T11:28:13;1.90;1.00
20885;DHT22;10602;48.000;9.654;2024-01-10T11:30:50;1.70;1.00
20885;DHT22;10602;48.000;9.654;2024-01-10T11:33:24;1.60;42.50
20885;DHT22;10602;48.000;9.654;2024-01-10T11:36:20;1.40;99.90
20885;DHT22;10602;48.000;9.654;2024-01-10T11:38:53;1.20;1.00
20885;DHT22;10602;48.000;9.654;2024-01-10T11:51:37;0.60;1.00
20885;DHT22;10602;48.000;9.654;2024-01-10T11:56:38;0.40;1.00
20885;DHT22;10602;48.000;9.654;2024-01-10T11:59:17;0.60;28.30
20885;DHT22;10602;48.000;9.654;2024-01-10T12:01:43;0.60;1.00
20885;DHT22;10602;48.000;9.654;2024-01-10T12:04:10;0.70;1.00
20885;DHT22;10602;48.000;9.654;2024-01-10T12:06:38;0.60;1.00
20885;DHT22;10602;48.000;9.654;2024-01-10T12:14:11;0.40;1.00
20885;DHT22;10602;48.000;9.654;2024-01-10T12:16:38;0.40;1.00
20885;DHT22;10602;48.000;9.654;2024-01-10T12:19:06;0.30;99.90
20885;DHT22;10602;48.000;9.654;2024-01-10T12:21:33;0.20;1.00
20885;DHT22;10602;48.000;9.654;2024-01-10T12:24:05;0.20;66.20
20885;DHT22;10602;48.000;9.654;2024-01-10T12:26:33;-0.30;1.00
20885;DHT22;10602;48.000;9.654;2024-01-10T12:29:00;0.00;99.90
20885;DHT22;10602;48.000;9.654;2024-01-10T12:31:30;-0.30;99.90
20885;DHT22;10602;48.000;9.654;2024-01-10T12:36:27;0.30;1.00
20885;DHT22;10602;48.000;9.654;2024-01-10T12:38:55;0.10;1.00
20885;DHT22;10602;48.000;9.654;2024-01-10T12:41:23;0.00;1.00
20885;DHT22;10602;48.000;9.654;2024-01-10T12:43:52;-0.10;9.10
20885;DHT22;10602;48.000;9.654;2024-01-10T12:46:22;-0.10;99.90
20885;DHT22;10602;48.000;9.654;2024-01-10T12:49:03;-0.20;99.90
20885;DHT22;10602;48.000;9.654;2024-01-10T12:51:31;-0.40;1.00
20885;DHT22;10602;48.000;9.654;2024-01-10T12:54:00;-0.50;1.00
20885;DHT22;10602;48.000;9.654;2024-01-10T12:56:28;-0.60;1.00
20885;DHT22;10602;48.000;9.654;2024-01-10T12:58:56;-0.70;1.00
20885;DHT22;10602;48.000;9.654;2024-01-10T13:01:24;-0.60;42.30
20885;DHT22;10602;48.000;9.654;2024-01-10T13:03:52;-0.60;99.90
20885;DHT22;10602;48.000;9.654;2024-01-10T13:06:20;-0.70;99.90
20885;DHT22;10602;48.000;9.654;2024-01-10T13:08:49;-0.50;99.90
20885;DHT22;10602;48.000;9.654;2024-01-10T13:11:16;-0.90;99.90
20885;DHT22;10602;48.000;9.654;2024-01-10T13:13:44;-0.80;99.90
20885;DHT22;10602;48.000;9.654;2024-01-10T13:16:11;-0.60;99.90
20885;DHT22;10602;48.000;9.654;2024-01-10T13:18:39;-0.80;99.90
20885;DHT22;10602;48.000;9.654;2024-01-10T13:21:06;-0.80;1.00
20885;DHT22;10602;48.000;9.654;2024-01-10T13:23:34;-0.70;1.00
20885;DHT22;10602;48.000;9.654;2024-01-10T13:26:03;-0.80;99.90
20885;DHT22;10602;48.000;9.654;2024-01-10T13:28:30;-0.60;99.90
20885;DHT22;10602;48.000;9.654;2024-01-10T13:30:58;-1.00;1.00
20885;DHT22;10602;48.000;9.654;2024-01-10T13:33:25;-1.00;1.00
20885;DHT22;10602;48.000;9.654;2024-01-10T13:35:53;-1.00;1.00
20885;DHT22;10602;48.000;9.654;2024-01-10T13:38:20;-1.20;1.00
20885;DHT22;10602;48.000;9.654;2024-01-10T13:40:49;-1.00;1.00
20885;DHT22;10602;48.000;9.654;2024-01-10T13:43:17;-1.00;1.00
20885;DHT22;10602;48.000;9.654;2024-01-10T13:45:45;-1.40;1.00
20885;DHT22;10602;48.000;9.654;2024-01-10T13:48:12;-1.20;1.00
20885;DHT22;10602;48.000;9.654;2024-01-10T13:50:40;-1.60;1.00
20885;DHT22;10602;48.000;9.654;2024-01-10T13:53:07;-1.60;1.00
20885;DHT22;10602;48.000;9.654;2024-01-10T13:55:35;-1.70;1.00
20885;DHT22;10602;48.000;9.654;2024-01-10T13:58:03;-1.70;1.00
20885;DHT22;10602;48.000;9.654;2024-01-10T14:00:30;-1.60;1.00
20885;DHT22;10602;48.000;9.654;2024-01-10T14:02:58;-1.70;1.00
20885;DHT22;10602;48.000;9.654;2024-01-10T14:05:29;-1.60;1.00
20885;DHT22;10602;48.000;9.654;2024-01-10T14:07:57;-1.60;1.00
20885;DHT22;10602;48.000;9.654;2024-01-10T14:10:24;-1.50;1.00
20885;DHT22;10602;48.000;9.654;2024-01-10T14:12:52;-1.40;1.00
20885;DHT22;10602;48.000;9.654;2024-01-10T14:15:19;-1.50;1.00
20885;DHT22;10602;48.000;9.654;2024-01-10T14:17:47;-1.40;1.00
20885;DHT22;10602;48.000;9.654;2024-01-10T14:20:15;-1.40;1.00
20885;DHT22;10602;48.000;9.654;2024-01-10T14:22:43;-1.40;1.00
20885;DHT22;10602;48.000;9.654;2024-01-10T14:25:11;-1.50;1.00
20885;DHT22;10602;48.000;9.654;2024-01-10T14:27:40;-1.60;1.00
20885;DHT22;10602;48.000;9.654;2024-01-10T14:30:07;-1.60;1.00
20885;DHT22;10602;48.000;9.654;2024-01-10T14:32:35;-1.60;1.00
20885;DHT22;10602;48.000;9.654;2024-01-10T14:35:04;-1.50;1.00
20885;DHT22;10602;48.000;9.654;2024-01-10T14:37:31;-1.60;1.00
20885;DHT22;10602;48.000;9.654;2024-01-10T14:39:59;-1.60;1.00
20885;DHT22;10602;48.000;9.654;2024-01-10T14:42:26;-1.70;1.00
20885;DHT22;10602;48.000;9.654;2024-01-10T14:44:54;-1.70;1.00
20885;DHT22;10602;48.000;9.654;2024-01-10T14:47:21;-1.50;1.00
20885;DHT22;10602;48.000;9.654;2024-01-10T14:49:49;-1.70;1.00
20885;DHT22;10602;48.000;9.654;2024-01-10T14:52:17;-1.70;1.00
20885;DHT22;10602;48.000;9.654;2024-01-10T14:54:44;-1.90;1.00
20885;DHT22;10602;48.000;9.654;2024-01-10T14:57:12;-1.80;1.00
20885;DHT22;10602;48.000;9.654;2024-01-10T14:59:40;-1.90;1.00
20885;DHT22;10602;48.000;9.654;2024-01-10T15:02:08;-1.90;1.00
20885;DHT22;10602;48.000;9.654;2024-01-10T15:04:39;-1.80;1.00
20885;DHT22;10602;48.000;9.654;2024-01-10T15:07:07;-1.70;1.00
20885;DHT22;10602;48.000;9.654;2024-01-10T15:09:35;-1.70;1.00
20885;DHT22;10602;48.000;9.654;2024-01-10T15:12:06;-1.80;1.00
20885;DHT22;10602;48.000;9.654;2024-01-10T15:14:37;-2.00;1.00
20885;DHT22;10602;48.000;9.654;2024-01-10T15:17:07;-1.90;1.00
20885;DHT22;10602;48.000;9.654;2024-01-10T15:19:37;-1.80;1.00
20885;DHT22;10602;48.000;9.654;2024-01-10T15:22:04;-2.00;1.00
20885;DHT22;10602;48.000;9.654;2024-01-10T15:24:32;-1.90;1.00
20885;DHT22;10602;48.000;9.654;2024-01-10T15:27:00;-2.00;1.00
20885;DHT22;10602;48.000;9.654;2024-01-10T15:29:29;-2.10;1.00
20885;DHT22;10602;48.000;9.654;2024-01-10T15:31:56;-2.20;5.00
20885;DHT22;10602;48.000;9.654;2024-01-10T15:34:24;-2.30;14.60
20885;DHT22;10602;48.000;9.654;2024-01-10T15:36:52;-2.20;22.40
20885;DHT22;10602;48.000;9.654;2024-01-10T15:39:19;-2.20;26.90
20885;DHT22;10602;48.000;9.654;2024-01-10T15:41:48;-2.30;28.50
20885;DHT22;10602;48.000;9.654;2024-01-10T15:44:19;-2.30;34.10
20885;DHT22;10602;48.000;9.654;2024-01-10T15:46:46;-2.40;41.90
20885;DHT22;10602;48.000;9.654;2024-01-10T15:49:14;-2.20;47.80
20885;DHT22;10602;48.000;9.654;2024-01-10T15:51:42;-2.20;56.90
20885;DHT22;10602;48.000;9.654;2024-01-10T15:54:12;-2.40;71.30
20885;DHT22;10602;48.000;9.654;2024-01-10T15:56:39;-2.60;85.20
20885;DHT22;10602;48.000;9.654;2024-01-10T15:59:08;-2.50;94.70
20885;DHT22;10602;48.000;9.654;2024-01-10T16:01:35;-2.60;99.90
20885;DHT22;10602;48.000;9.654;2024-01-10T16:04:03;-2.50;99.90
20885;DHT22;10602;48.000;9.654;2024-01-10T16:06:33;-2.30;99.90
20885;DHT22;10602;48.000;9.654;2024-01-10T16:09:07;-2.40;99.90
20885;DHT22;10602;48.000;9.654;2024-01-10T16:11:46;-2.50;99.90
20885;DHT22;10602;48.000;9.654;2024-01-10T16:14:17;-2.30;99.90
20885;DHT22;10602;48.000;9.654;2024-01-10T16:16:58;-2.40;99.90
20885;DHT22;10602;48.000;9.654;2024-01-10T16:19:25;-2.50;99.90
20885;DHT22;10602;48.000;9.654;2024-01-10T16:21:53;-2.50;99.90
20885;DHT22;10602;48.000;9.654;2024-01-10T16:24:21;-2.60;99.90
20885;DHT22;10602;48.000;9.654;2024-01-10T16:26:49;-2.50;99.90
20885;DHT22;10602;48.000;9.654;2024-01-10T16:29:16;-2.40;99.90
20885;DHT22;10602;48.000;9.654;2024-01-10T16:31:46;-2.50;99.90
20885;DHT22;10602;48.000;9.654;2024-01-10T16:34:13;-2.50;99.90
20885;DHT22;10602;48.000;9.654;2024-01-10T16:36:41;-2.60;99.90
20885;DHT22;10602;48.000;9.654;2024-01-10T16:39:09;-2.50;99.90
20885;DHT22;10602;48.000;9.654;2024-01-10T16:41:37;-2.60;99.90
20885;DHT22;10602;48.000;9.654;2024-01-10T16:44:05;-2.60;99.90
20885;DHT22;10602;48.000;9.654;2024-01-10T16:46:33;-2.70;99.90
20885;DHT22;10602;48.000;9.654;2024-01-10T16:49:00;-2.70;99.90
20885;DHT22;10602;48.000;9.654;2024-01-10T16:51:29;-2.60;99.90
20885;DHT22;10602;48.000;9.654;2024-01-10T16:53:56;-2.70;99.90
20885;DHT22;10602;48.000;9.654;2024-01-10T16:56:24;-2.60;99.90
20885;DHT22;10602;48.000;9.654;2024-01-10T16:58:51;-2.60;99.90
20885;DHT22;10602;48.000;9.654;2024-01-10T17:01:19;-2.70;99.90
20885;DHT22;10602;48.000;9.654;2024-01-10T17:03:46;-2.60;99.90
20885;DHT22;10602;48.000;9.654;2024-01-10T17:06:14;-2.50;99.90
20885;DHT22;10602;48.000;9.654;2024-01-10T17:08:42;-2.50;99.90
20885;DHT22;10602;48.000;9.654;2024-01-10T17:11:10;-2.60;99.90
20885;DHT22;10602;48.000;9.654;2024-01-10T17:13:38;-2.60;99.90
20885;DHT22;10602;48.000;9.654;2024-01-10T17:16:07;-2.50;99.90
20885;DHT22;10602;48.000;9.654;2024-01-10T17:18:35;-2.50;99.90
20885;DHT22;10602;48.000;9.654;2024-01-10T17:21:06;-2.50;99.90
20885;DHT22;10602;48.000;9.654;2024-01-10T17:23:32;-2.50;99.90
20885;DHT22;10602;48.000;9.654;2024-01-10T17:25:59;-2.50;99.90
20885;DHT22;10602;48.000;9.654;2024-01-10T17:28:27;-2.40;99.90
20885;DHT22;10602;48.000;9.654;2024-01-10T17:30:55;-2.40;99.90
20885;DHT22;10602;48.000;9.654;2024-01-10T17:33:23;-2.30;99.90
20885;DHT22;10602;48.000;9.654;2024-01-10T17:35:50;-2.30;99.90
20885;DHT22;10602;48.000;9.654;2024-01-10T17:38:18;-2.30;99.90
20885;DHT22;10602;48.000;9.654;2024-01-10T17:40:45;-2.20;99.90
20885;DHT22;10602;48.000;9.654;2024-01-10T17:43:14;-2.30;99.90
20885;DHT22;10602;48.000;9.654;2024-01-10T17:45:42;-2.40;99.90
20885;DHT22;10602;48.000;9.654;2024-01-10T17:48:09;-2.30;99.90
20885;DHT22;10602;48.000;9.654;2024-01-10T17:50:37;-2.40;99.90
20885;DHT22;10602;48.000;9.654;2024-01-10T17:53:04;-2.30;99.90
20885;DHT22;10602;48.000;9.654;2024-01-10T17:55:32;-2.30;99.90
20885;DHT22;10602;48.000;9.654;2024-01-10T17:58:00;-2.40;99.90
20885;DHT22;10602;48.000;9.654;2024-01-10T18:00:27;-2.30;99.90
20885;DHT22;10602;48.000;9.654;2024-01-10T18:02:56;-2.30;99.90
20885;DHT22;10602;48.000;9.654;2024-01-10T18:05:24;-2.30;99.90
20885;DHT22;10602;48.000;9.654;2024-01-10T18:07:57;-2.40;99.90
20885;DHT22;10602;48.000;9.654;2024-01-10T18:10:31;-2.40;99.90
20885;DHT22;10602;48.000;9.654;2024-01-10T18:13:00;-2.40;99.90
20885;DHT22;10602;48.000;9.654;2024-01-10T18:15:29;-2.40;99.90
20885;DHT22;10602;48.000;9.654;2024-01-10T18:18:00;-2.30;99.90
20885;DHT22;10602;48.000;9.654;2024-01-10T18:20:27;-2.40;99.90
20885;DHT22;10602;48.000;9.654;2024-01-10T18:22:55;-2.40;99.90
20885;DHT22;10602;48.000;9.654;2024-01-10T18:25:23;-2.40;99.90
20885;DHT22;10602;48.000;9.654;2024-01-10T18:27:52;-2.50;99.90
20885;DHT22;10602;48.000;9.654;2024-01-10T18:30:19;-2.40;99.90
20885;DHT22;10602;48.000;9.654;2024-01-10T18:32:47;-2.40;99.90
20885;DHT22;10602;48.000;9.654;2024-01-10T18:35:15;-2.40;99.90
20885;DHT22;10602;48.000;9.654;2024-01-10T18:37:42;-2.40;99.90
20885;DHT22;10602;48.000;9.654;2024-01-10T18:40:11;-2.60;99.90
20885;DHT22;10602;48.000;9.654;2024-01-10T18:42:38;-2.60;99.90
20885;DHT22;10602;48.000;9.654;2024-01-10T18:45:07;-2.70;99.90
20885;DHT22;10602;48.000;9.654;2024-01-10T18:47:34;-2.70;99.90
20885;DHT22;10602;48.000;9.654;2024-01-10T18:50:05;-2.70;99.90
20885;DHT22;10602;48.000;9.654;2024-01-10T18:52:33;-2.80;99.90
20885;DHT22;10602;48.000;9.654;2024-01-10T18:55:02;-2.80;99.90
20885;DHT22;10602;48.000;9.654;2024-01-10T18:57:31;-3.00;99.90
20885;DHT22;10602;48.000;9.654;2024-01-10T18:59:58;-3.00;99.90
20885;DHT22;10602;48.000;9.654;2024-01-10T19:02:26;-3.00;99.90
20885;DHT22;10602;48.000;9.654;2024-01-10T19:04:53;-3.00;99.90
20885;DHT22;10602;48.000;9.654;2024-01-10T19:07:21;-3.10;99.90
20885;DHT22;10602;48.000;9.654;2024-01-10T19:09:48;-3.10;99.90
20885;DHT22;10602;48.000;9.654;2024-01-10T19:12:16;-3.10;99.90
20885;DHT22;10602;48.000;9.654;2024-01-10T19:14:44;-3.10;99.90
